Time;durP1;ratioP1;P1;durP2;ratioP2;P2;SDS_P1;SDS_P2;PMS_P1;PMS_P2;Temp;Humidity;BMP_temperature;BMP_pressure;BME280_temperature;BME280_humidity;BME280_pressure;Samples;Min_cycle;Max_cycle;Signal;HPM_P1;HPM_P2
2023/12/21 00:00:32;;;;;;;;;;;;;;;;;;1910513;28;7008;-68
2023/12/21 00:01:33;;;;;;;;;;;;;;;;;;1904172;28;7017;-67
2023/12/21 00:02:31;;;;;;;;;;;;;;;;;;1909311;28;8046;-67
2023/12/21 00:03:28;;;;;;;;;;;;;;;;;;1902419;28;7111;-67
2023/12/21 00:04:25;;;;;;;;;;;;;;;;;;1909890;28;7044;-68
2023/12/21 00:05:23;;;;;;;;;;;;;;;;;;1904976;28;7064;-67
2023/12/21 00:06:20;;;;;;;;;;;;;;;;;;1907660;28;7354;-67
2023/12/21 00:07:18;;;;;;;;;;;;;;;;;;1908552;28;7095;-67
2023/12/21 00:08:15;;;;;;;;;;;;;;;;;;1903455;28;7095;-67
2023/12/21 00:09:13;;;;;;;;;;;;;;;;;;1905489;28;7036;-68
2023/12/21 00:10:10;;;;;;;;;;;;;;;;;;1910992;28;8070;-67
2023/12/21 00:11:08;;;;;;;;;;;;;;;;;;1911513;28;7139;-67
2023/12/21 00:12:06;;;;;;;;;;;;;;;;;;1910046;28;7112;-67
2023/12/21 00:13:03;;;;;;;;;;;;;;;;;;1910503;28;7103;-67
2023/12/21 00:14:01;;;;;;;;;;;;;;;;;;1906869;28;7000;-68
2023/12/21 00:14:58;;;;;;;;;;;;;;;;;;1909641;28;7095;-67
2023/12/21 00:15:56;;;;;;;;;;;;;;;;;;1907129;28;7039;-67
2023/12/21 00:16:54;;;;;;;;;;;;;;;;;;1903568;28;7333;-67
2023/12/21 00:17:51;;;;;;;;;;;;;;;;;;1909708;28;7333;-67
2023/12/21 00:18:49;;;;;;;;;;;;;;;;;;1909159;28;7179;-67
2023/12/21 00:19:46;;;;;;;;;;;;;;;;;;1909012;28;8017;-66
2023/12/21 00:20:44;;;;;;;;;;;;;;;;;;1903859;28;7004;-67
2023/12/21 00:21:41;;;;;;;;;;;;;;;;;;1911071;28;6994;-68
2023/12/21 00:22:39;;;;;;;;;;;;;;;;;;1911325;28;7012;-68
2023/12/21 00:23:37;;;;;;;;;;;;;;;;;;1911163;28;7375;-67
2023/12/21 00:24:34;;;;;;;;;;;;;;;;;;1911014;28;7028;-67
2023/12/21 00:25:32;;;;;;;;;;;;;;;;;;1908147;28;7096;-67
2023/12/21 00:26:29;;;;;;;;;;;;;;;;;;1903432;28;7095;-68
2023/12/21 00:27:27;;;;;;;;;;;;;;;;;;1909348;28;7049;-67
2023/12/21 00:28:24;;;;;;;;;;;;;;;;;;1909349;28;7131;-67
2023/12/21 00:29:21;;;;;;;;;;;;;;;;;;1910611;28;8038;-68
2023/12/21 00:30:19;;;;;;;;;;;;;;;;;;1906677;28;7120;-68
2023/12/21 00:31:16;;;;;;;;;;;;;;;;;;1912791;28;7480;-68
2023/12/21 00:32:14;;;;;;;;;;;;;;;;;;1906971;28;7979;-67
2023/12/21 00:33:11;;;;;;;;;;;;;;;;;;1910174;28;7013;-67
2023/12/21 00:34:09;;;;;;;;;;;;;;;;;;1905257;28;8063;-67
2023/12/21 00:35:06;;;;;;;;;;;;;;;;;;1912117;28;7116;-67
2023/12/21 00:36:04;;;;;;;;;;;;;;;;;;1906034;28;7092;-67
2023/12/21 00:37:01;;;;;;;;;;;;;;;;;;1904817;28;7016;-67
2023/12/21 00:38:00;;;;;;;;;;;;;;;;;;1904802;28;8058;-68
2023/12/21 00:38:57;;;;;;;;;;;;;;;;;;1905118;28;7012;-68
2023/12/21 00:39:56;;;;;;;;;;;;;;;;;;1904135;28;7092;-67
2023/12/21 00:40:54;;;;;;;;;;;;;;;;;;1903924;28;7053;-68
2023/12/21 00:41:51;;;;;;;;;;;;;;;;;;1908271;28;7095;-68
2023/12/21 00:42:49;;;;;;;;;;;;;;;;;;1911502;28;8036;-66
2023/12/21 00:43:46;;;;;;;;;;;;;;;;;;1907399;28;7098;-67
2023/12/21 00:44:46;;;;;;;;;;;;;;;;;;1909831;28;7040;-67
2023/12/21 00:45:43;;;;;;;;;;;;;;;;;;1907210;28;7096;-67
2023/12/21 00:46:41;;;;;;;;;;;;;;;;;;1908302;28;8045;-67
2023/12/21 00:47:38;;;;;;;;;;;;;;;;;;1910291;28;7042;-66
2023/12/21 00:48:36;;;;;;;;;;;;;;;;;;1908389;28;7032;-68
2023/12/21 00:49:33;;;;;;;;;;;;;;;;;;1906379;28;7406;-67
2023/12/21 00:50:31;;;;;;;;;;;;;;;;;;1904925;28;7080;-66
2023/12/21 00:51:28;;;;;;;;;;;;;;;;;;1904593;28;7008;-67
2023/12/21 00:52:26;;;;;;;;;;;;;;;;;;1905185;28;7053;-68
2023/12/21 00:53:24;;;;;;;;;;;;;;;;;;1903369;28;7026;-67
2023/12/21 00:54:21;;;;;;;;;;;;;;;;;;1904792;28;7135;-67
2023/12/21 00:55:19;;;;;;;;;;;;;;;;;;1905404;28;7095;-67
2023/12/21 00:56:16;;;;;;;;;;;;;;;;;;1905303;28;7012;-67
2023/12/21 00:57:13;;;;;;;;;;;;;;;;;;1904884;28;9534;-67
2023/12/21 00:58:11;;;;;;;;;;;;;;;;;;1909612;28;7042;-67
2023/12/21 00:59:09;;;;;;;;;;;;;;;;;;1904780;28;7008;-68
2023/12/21 01:00:06;;;;;;;;;;;;;;;;;;1908029;28;7488;-66
2023/12/21 01:01:04;;;;;;;;;;;;;;;;;;1912544;28;7107;-68
2023/12/21 01:02:02;;;;;;;;;;;;;;;;;;1912149;28;8108;-67
2023/12/21 01:03:00;;;;;;;;;;;;;;;;;;1907676;28;7012;-68
2023/12/21 01:03:57;;;;;;;;;;;;;;;;;;1903860;28;7040;-68
2023/12/21 01:04:54;;;;;;;;;;;;;;;;;;1909858;28;7104;-68
2023/12/21 01:05:52;;;;;;;;;;;;;;;;;;1911114;28;7413;-68
2023/12/21 01:06:49;;;;;;;;;;;;;;;;;;1911909;28;7013;-68
2023/12/21 01:07:47;;;;;;;;;;;;;;;;;;1907107;28;8173;-67
2023/12/21 01:08:45;;;;;;;;;;;;;;;;;;1905311;28;7012;-67
2023/12/21 01:09:43;;;;;;;;;;;;;;;;;;1904713;28;7025;-67
2023/12/21 01:10:40;;;;;;;;;;;;;;;;;;1909299;28;7013;-66
2023/12/21 01:11:37;;;;;;;;;;;;;;;;;;1910388;28;7017;-67
2023/12/21 01:12:35;;;;;;;;;;;;;;;;;;1911725;28;7115;-67
2023/12/21 01:13:33;;;;;;;;;;;;;;;;;;1912039;28;7008;-67
2023/12/21 01:14:31;;;;;;;;;;;;;;;;;;1912558;28;7112;-67
2023/12/21 01:15:28;;;;;;;;;;;;;;;;;;1908893;28;7248;-67
2023/12/21 01:16:26;;;;;;;;;;;;;;;;;;1910246;28;7004;-67
2023/12/21 01:17:24;;;;;;;;;;;;;;;;;;1908488;28;7311;-67
2023/12/21 01:18:22;;;;;;;;;;;;;;;;;;1903969;28;8141;-68
2023/12/21 01:19:19;;;;;;;;;;;;;;;;;;1903909;28;7120;-67
2023/12/21 01:20:17;;;;;;;;;;;;;;;;;;1904977;28;7096;-67
2023/12/21 01:21:14;;;;;;;;;;;;;;;;;;1906820;28;7367;-68
2023/12/21 01:22:12;;;;;;;;;;;;;;;;;;1910714;28;7037;-68
2023/12/21 01:23:09;;;;;;;;;;;;;;;;;;1908279;28;7009;-68
2023/12/21 01:24:07;;;;;;;;;;;;;;;;;;1906377;28;7031;-67
2023/12/21 01:25:04;;;;;;;;;;;;;;;;;;1908815;28;7008;-67
2023/12/21 01:26:02;;;;;;;;;;;;;;;;;;1909816;28;8098;-67
2023/12/21 01:26:59;;;;;;;;;;;;;;;;;;1911682;28;7155;-67
2023/12/21 01:27:57;;;;;;;;;;;;;;;;;;1912144;28;7044;-67
2023/12/21 01:28:54;;;;;;;;;;;;;;;;;;1911792;28;7068;-67
2023/12/21 01:29:52;;;;;;;;;;;;;;;;;;1905937;28;7010;-67
2023/12/21 01:30:50;;;;;;;;;;;;;;;;;;1904127;28;7012;-68
2023/12/21 01:31:47;;;;;;;;;;;;;;;;;;1905115;28;7016;-67
2023/12/21 01:32:45;;;;;;;;;;;;;;;;;;1908660;28;7020;-68
2023/12/21 01:33:42;;;;;;;;;;;;;;;;;;1905779;28;7045;-68
2023/12/21 01:34:40;;;;;;;;;;;;;;;;;;1906342;28;7057;-68
2023/12/21 01:35:38;;;;;;;;;;;;;;;;;;1910584;28;7005;-68
2023/12/21 01:36:35;;;;;;;;;;;;;;;;;;1911569;28;7031;-68
2023/12/21 01:37:33;;;;;;;;;;;;;;;;;;1904991;28;7091;-67
2023/12/21 01:38:30;;;;;;;;;;;;;;;;;;1904871;28;7095;-67
2023/12/21 01:39:28;;;;;;;;;;;;;;;;;;1912582;28;7112;-66
2023/12/21 01:40:25;;;;;;;;;;;;;;;;;;1910924;28;7041;-67
2023/12/21 01:41:23;;;;;;;;;;;;;;;;;;1911161;28;7010;-66
2023/12/21 01:42:20;;;;;;;;;;;;;;;;;;1911808;28;8010;-67
2023/12/21 01:43:18;;;;;;;;;;;;;;;;;;1911743;28;7035;-68
2023/12/21 01:44:16;;;;;;;;;;;;;;;;;;1905234;28;7013;-67
2023/12/21 01:45:13;;;;;;;;;;;;;;;;;;1902906;28;6996;-68
2023/12/21 01:46:11;;;;;;;;;;;;;;;;;;1904188;28;7095;-67
2023/12/21 01:47:09;;;;;;;;;;;;;;;;;;1904602;28;7328;-67
2023/12/21 01:48:09;;;;;;;;;;;;;;;;;;1909596;28;7140;-67
2023/12/21 01:49:07;;;;;;;;;;;;;;;;;;1904164;28;7044;-67
2023/12/21 01:50:06;;;;;;;;;;;;;;;;;;1906144;28;7162;-68
2023/12/21 01:51:04;;;;;;;;;;;;;;;;;;1905898;28;8061;-67
2023/12/21 01:52:02;;;;;;;;;;;;;;;;;;1904117;28;7004;-67
2023/12/21 01:53:02;;;;;;;;;;;;;;;;;;1904106;28;7048;-68
2023/12/21 01:54:03;;;;;;;;;;;;;;;;;;1904257;28;7016;-67
2023/12/21 01:55:01;;;;;;;;;;;;;;;;;;1905597;28;7054;-67
2023/12/21 01:56:00;;;;;;;;;;;;;;;;;;1903571;28;7185;-67
2023/12/21 01:56:57;;;;;;;;;;;;;;;;;;1904786;28;7015;-67
2023/12/21 01:57:55;;;;;;;;;;;;;;;;;;1902839;28;7160;-68
2023/12/21 01:58:54;;;;;;;;;;;;;;;;;;1911763;28;7051;-67
2023/12/21 01:59:51;;;;;;;;;;;;;;;;;;1911798;28;7043;-68
2023/12/21 02:00:49;;;;;;;;;;;;;;;;;;1906936;28;7015;-68
2023/12/21 02:01:46;;;;;;;;;;;;;;;;;;1905206;28;7008;-67
2023/12/21 02:02:44;;;;;;;;;;;;;;;;;;1906982;28;7012;-66
2023/12/21 02:03:43;;;;;;;;;;;;;;;;;;1904442;28;7011;-68
2023/12/21 02:04:40;;;;;;;;;;;;;;;;;;1904013;28;8027;-68
2023/12/21 02:05:38;;;;;;;;;;;;;;;;;;1904662;28;8018;-67
2023/12/21 02:06:36;;;;;;;;;;;;;;;;;;1902868;28;7107;-68
2023/12/21 02:07:33;;;;;;;;;;;;;;;;;;1916191;28;7229;-67
2023/12/21 02:08:31;;;;;;;;;;;;;;;;;;1919136;28;7025;-67
2023/12/21 02:09:29;;;;;;;;;;;;;;;;;;1912925;28;7017;-68
2023/12/21 02:10:26;;;;;;;;;;;;;;;;;;1925254;28;7099;-68
2023/12/21 02:11:24;;;;;;;;;;;;;;;;;;1917819;28;7087;-67
2023/12/21 02:12:21;;;;;;;;;;;;;;;;;;1911072;28;7018;-68
2023/12/21 02:13:19;;;;;;;;;;;;;;;;;;1904391;28;7013;-67
2023/12/21 02:14:16;;;;;;;;;;;;;;;;;;1904127;28;7135;-68
2023/12/21 02:15:14;;;;;;;;;;;;;;;;;;1911059;28;7036;-67
2023/12/21 02:16:15;;;;;;;;;;;;;;;;;;1902719;28;7147;-67
2023/12/21 02:17:15;;;;;;;;;;;;;;;;;;1903138;28;7302;-68
2023/12/21 02:18:14;;;;;;;;;;;;;;;;;;1904629;28;7108;-67
2023/12/21 02:19:13;;;;;;;;;;;;;;;;;;1904535;28;7020;-67
2023/12/21 02:20:11;;;;;;;;;;;;;;;;;;1922700;28;7243;-66
2023/12/21 02:21:11;;;;;;;;;;;;;;;;;;1921596;28;7015;-67
2023/12/21 02:22:10;;;;;;;;;;;;;;;;;;1912440;28;7090;-67
2023/12/21 02:23:10;;;;;;;;;;;;;;;;;;1904705;28;7007;-67
2023/12/21 02:24:12;;;;;;;;;;;;;;;;;;1912530;28;7016;-67
2023/12/21 02:25:11;;;;;;;;;;;;;;;;;;1907057;28;8012;-66
2023/12/21 02:26:09;;;;;;;;;;;;;;;;;;1903888;28;7104;-67
2023/12/21 02:27:06;;;;;;;;;;;;;;;;;;1903834;28;8034;-67
2023/12/21 02:28:04;;;;;;;;;;;;;;;;;;1909704;28;7004;-67
2023/12/21 02:29:01;;;;;;;;;;;;;;;;;;1904352;28;7012;-67
2023/12/21 02:29:59;;;;;;;;;;;;;;;;;;1907583;28;8008;-66
2023/12/21 02:30:56;;;;;;;;;;;;;;;;;;1906446;28;7008;-68
2023/12/21 02:31:54;;;;;;;;;;;;;;;;;;1912368;28;7053;-67
2023/12/21 02:32:51;;;;;;;;;;;;;;;;;;1910516;28;7008;-68
2023/12/21 02:33:49;;;;;;;;;;;;;;;;;;1904608;28;7092;-67
2023/12/21 02:34:46;;;;;;;;;;;;;;;;;;1912072;28;7040;-67
2023/12/21 02:35:44;;;;;;;;;;;;;;;;;;1911085;28;8043;-67
2023/12/21 02:36:41;;;;;;;;;;;;;;;;;;1908384;28;7012;-67
2023/12/21 02:37:39;;;;;;;;;;;;;;;;;;1903275;28;7012;-67
2023/12/21 02:38:37;;;;;;;;;;;;;;;;;;1910763;28;7046;-67
2023/12/21 02:39:34;;;;;;;;;;;;;;;;;;1908068;28;7021;-68
2023/12/21 02:40:32;;;;;;;;;;;;;;;;;;1906388;28;7036;-68
2023/12/21 02:41:29;;;;;;;;;;;;;;;;;;1911183;28;8009;-67
2023/12/21 02:42:27;;;;;;;;;;;;;;;;;;1906503;28;7041;-67
2023/12/21 02:43:24;;;;;;;;;;;;;;;;;;1908975;28;7064;-66
2023/12/21 02:44:22;;;;;;;;;;;;;;;;;;1904453;28;7044;-67
2023/12/21 02:45:19;;;;;;;;;;;;;;;;;;1904150;28;7004;-67
2023/12/21 02:46:18;;;;;;;;;;;;;;;;;;1904253;28;7024;-67
2023/12/21 02:47:16;;;;;;;;;;;;;;;;;;1904142;28;7146;-66
2023/12/21 02:48:13;;;;;;;;;;;;;;;;;;1904011;28;7406;-67
2023/12/21 02:49:11;;;;;;;;;;;;;;;;;;1904075;28;7122;-66
2023/12/21 02:50:08;;;;;;;;;;;;;;;;;;1908637;28;7117;-67
2023/12/21 02:51:06;;;;;;;;;;;;;;;;;;1911233;28;9106;-67
2023/12/21 02:52:04;;;;;;;;;;;;;;;;;;1910425;28;7008;-67
2023/12/21 02:53:01;;;;;;;;;;;;;;;;;;1910249;28;7127;-66
2023/12/21 02:53:58;;;;;;;;;;;;;;;;;;1910889;28;7057;-67
2023/12/21 02:54:56;;;;;;;;;;;;;;;;;;1908415;28;7012;-68
2023/12/21 02:55:54;;;;;;;;;;;;;;;;;;1908467;28;7124;-68
2023/12/21 02:56:51;;;;;;;;;;;;;;;;;;1908561;28;7113;-66
2023/12/21 02:57:49;;;;;;;;;;;;;;;;;;1904019;28;7131;-67
2023/12/21 02:58:46;;;;;;;;;;;;;;;;;;1911111;28;7337;-67
2023/12/21 02:59:43;;;;;;;;;;;;;;;;;;1910695;28;7116;-68
2023/12/21 03:00:41;;;;;;;;;;;;;;;;;;1906248;28;7029;-66
2023/12/21 03:01:42;;;;;;;;;;;;;;;;;;1904180;28;7000;-67
2023/12/21 03:02:40;;;;;;;;;;;;;;;;;;1903549;28;7135;-67
2023/12/21 03:03:37;;;;;;;;;;;;;;;;;;1907534;28;7008;-67
2023/12/21 03:04:35;;;;;;;;;;;;;;;;;;1903958;28;8063;-68
2023/12/21 03:05:33;;;;;;;;;;;;;;;;;;1911346;28;7203;-68
2023/12/21 03:06:30;;;;;;;;;;;;;;;;;;1911794;28;7012;-67
2023/12/21 03:07:28;;;;;;;;;;;;;;;;;;1908515;28;7364;-67
2023/12/21 03:08:25;;;;;;;;;;;;;;;;;;1906396;28;7012;-67
2023/12/21 03:09:23;;;;;;;;;;;;;;;;;;1906653;28;7017;-67
2023/12/21 03:10:20;;;;;;;;;;;;;;;;;;1905866;28;7063;-67
2023/12/21 03:11:17;;;;;;;;;;;;;;;;;;1907164;28;7016;-67
2023/12/21 03:12:21;;;;;;;;;;;;;;;;;;1918369;28;6759;-69
2023/12/21 03:13:18;;;;;;;;;;;;;;;;;;1913469;28;7139;-68
2023/12/21 03:14:16;;;;;;;;;;;;;;;;;;1917947;28;7135;-69
2023/12/21 03:15:13;;;;;;;;;;;;;;;;;;1917480;28;8492;-68
2023/12/21 03:16:12;;;;;;;;;;;;;;;;;;1917667;28;7017;-69
2023/12/21 03:17:10;;;;;;;;;;;;;;;;;;1917554;28;7090;-68
2023/12/21 03:18:07;;;;;;;;;;;;;;;;;;1917352;28;7012;-69
2023/12/21 03:19:05;;;;;;;;;;;;;;;;;;1916868;28;7009;-68
2023/12/21 03:20:03;;;;;;;;;;;;;;;;;;1915971;28;7004;-69
2023/12/21 03:21:01;;;;;;;;;;;;;;;;;;1912065;28;7113;-69
2023/12/21 03:21:58;;;;;;;;;;;;;;;;;;1917256;28;7135;-69
2023/12/21 03:22:56;;;;;;;;;;;;;;;;;;1915294;28;7107;-69
2023/12/21 03:23:53;;;;;;;;;;;;;;;;;;1911607;28;7008;-68
2023/12/21 03:24:50;;;;;;;;;;;;;;;;;;1917482;28;7041;-69
2023/12/21 03:25:48;;;;;;;;;;;;;;;;;;1910225;28;7020;-68
2023/12/21 03:26:46;;;;;;;;;;;;;;;;;;1908618;28;7006;-69
2023/12/21 03:27:44;;;;;;;;;;;;;;;;;;1910419;28;7147;-69
2023/12/21 03:28:45;;;;;;;;;;;;;;;;;;1908579;28;7091;-69
2023/12/21 03:29:44;;;;;;;;;;;;;;;;;;1908793;28;7024;-69
2023/12/21 03:30:43;;;;;;;;;;;;;;;;;;1916512;28;7468;-70
2023/12/21 03:31:40;;;;;;;;;;;;;;;;;;1915244;28;7048;-67
2023/12/21 03:32:38;;;;;;;;;;;;;;;;;;1916719;28;7434;-69
2023/12/21 03:33:36;;;;;;;;;;;;;;;;;;1910312;28;7026;-68
2023/12/21 03:34:34;;;;;;;;;;;;;;;;;;1911317;28;9315;-70
2023/12/21 03:35:31;;;;;;;;;;;;;;;;;;1916563;28;7025;-69
2023/12/21 03:36:29;;;;;;;;;;;;;;;;;;1908855;28;7088;-68
2023/12/21 03:37:27;;;;;;;;;;;;;;;;;;1915428;28;8886;-68
2023/12/21 03:38:24;;;;;;;;;;;;;;;;;;1914809;28;7092;-68
2023/12/21 03:39:22;;;;;;;;;;;;;;;;;;1917435;28;7104;-68
2023/12/21 03:40:20;;;;;;;;;;;;;;;;;;1917551;28;7319;-69
2023/12/21 03:41:17;;;;;;;;;;;;;;;;;;1909077;28;7025;-69
2023/12/21 03:42:14;;;;;;;;;;;;;;;;;;1913820;28;7324;-69
2023/12/21 03:43:12;;;;;;;;;;;;;;;;;;1917121;28;7092;-69
2023/12/21 03:44:09;;;;;;;;;;;;;;;;;;1917468;28;7374;-69
2023/12/21 03:45:07;;;;;;;;;;;;;;;;;;1917181;28;7008;-69
2023/12/21 03:46:08;;;;;;;;;;;;;;;;;;1917125;28;7342;-69
2023/12/21 03:47:05;;;;;;;;;;;;;;;;;;1916316;28;7080;-69
2023/12/21 03:48:03;;;;;;;;;;;;;;;;;;1910985;28;7116;-69
2023/12/21 03:49:00;;;;;;;;;;;;;;;;;;1913946;28;7148;-69
2023/12/21 03:49:58;;;;;;;;;;;;;;;;;;1909043;28;7008;-68
2023/12/21 03:50:55;;;;;;;;;;;;;;;;;;1911014;28;7001;-69
2023/12/21 03:51:53;;;;;;;;;;;;;;;;;;1908535;28;7017;-68
2023/12/21 03:52:50;;;;;;;;;;;;;;;;;;1908548;28;7045;-68
2023/12/21 03:53:48;;;;;;;;;;;;;;;;;;1917339;28;7124;-68
2023/12/21 03:54:45;;;;;;;;;;;;;;;;;;1917778;28;7110;-69
2023/12/21 03:55:43;;;;;;;;;;;;;;;;;;1917959;28;7093;-68
2023/12/21 03:56:41;;;;;;;;;;;;;;;;;;1917090;28;7092;-69
2023/12/21 03:57:38;;;;;;;;;;;;;;;;;;1915274;28;7027;-68
2023/12/21 03:58:37;;;;;;;;;;;;;;;;;;1909410;28;7004;-68
2023/12/21 03:59:35;;;;;;;;;;;;;;;;;;1910141;28;7008;-69
2023/12/21 04:00:33;;;;;;;;;;;;;;;;;;1912111;28;7009;-68
2023/12/21 04:01:31;;;;;;;;;;;;;;;;;;1917378;28;7112;-69
2023/12/21 04:02:28;;;;;;;;;;;;;;;;;;1918054;28;7004;-68
2023/12/21 04:03:25;;;;;;;;;;;;;;;;;;1916829;28;7095;-68
2023/12/21 04:04:23;;;;;;;;;;;;;;;;;;1915302;28;8010;-69
2023/12/21 04:05:24;;;;;;;;;;;;;;;;;;1908653;28;7124;-69
2023/12/21 04:06:22;;;;;;;;;;;;;;;;;;1908930;28;7008;-69
2023/12/21 04:07:19;;;;;;;;;;;;;;;;;;1910697;28;7024;-68
2023/12/21 04:08:21;;;;;;;;;;;;;;;;;;1916735;28;7012;-68
2023/12/21 04:09:18;;;;;;;;;;;;;;;;;;1916831;28;7098;-68
2023/12/21 04:10:16;;;;;;;;;;;;;;;;;;1914651;28;7110;-69
2023/12/21 04:11:14;;;;;;;;;;;;;;;;;;1909782;28;7103;-68
2023/12/21 04:12:11;;;;;;;;;;;;;;;;;;1908000;28;7012;-67
2023/12/21 04:13:09;;;;;;;;;;;;;;;;;;1911221;28;7619;-68
2023/12/21 04:14:06;;;;;;;;;;;;;;;;;;1910312;28;7008;-68
2023/12/21 04:15:04;;;;;;;;;;;;;;;;;;1923605;28;8709;-68
2023/12/21 04:16:01;;;;;;;;;;;;;;;;;;1923859;28;7016;-69
2023/12/21 04:16:59;;;;;;;;;;;;;;;;;;1917723;28;7009;-67
2023/12/21 04:17:56;;;;;;;;;;;;;;;;;;1916130;28;8026;-68
2023/12/21 04:18:54;;;;;;;;;;;;;;;;;;1910609;28;7099;-68
2023/12/21 04:19:52;;;;;;;;;;;;;;;;;;1909298;28;7005;-68
2023/12/21 04:20:49;;;;;;;;;;;;;;;;;;1910948;28;7004;-68
2023/12/21 04:21:47;;;;;;;;;;;;;;;;;;1908607;28;7391;-69
2023/12/21 04:22:44;;;;;;;;;;;;;;;;;;1909790;28;7100;-69
2023/12/21 04:23:42;;;;;;;;;;;;;;;;;;1904913;28;7138;-68
2023/12/21 04:24:43;;;;;;;;;;;;;;;;;;1912180;28;7016;-69
2023/12/21 04:25:40;;;;;;;;;;;;;;;;;;1912199;28;7103;-67
2023/12/21 04:26:38;;;;;;;;;;;;;;;;;;1909565;28;7095;-68
2023/12/21 04:27:35;;;;;;;;;;;;;;;;;;1903193;28;7000;-67
2023/12/21 04:28:33;;;;;;;;;;;;;;;;;;1908366;28;7363;-70
2023/12/21 04:29:30;;;;;;;;;;;;;;;;;;1904429;28;7024;-69
2023/12/21 04:30:28;;;;;;;;;;;;;;;;;;1904854;28;7094;-68
2023/12/21 04:31:25;;;;;;;;;;;;;;;;;;1904536;28;7000;-68
2023/12/21 04:32:23;;;;;;;;;;;;;;;;;;1904675;28;7003;-69
2023/12/21 04:33:21;;;;;;;;;;;;;;;;;;1905743;28;7032;-69
2023/12/21 04:34:18;;;;;;;;;;;;;;;;;;1904340;28;7106;-68
2023/12/21 04:35:16;;;;;;;;;;;;;;;;;;1912087;28;7052;-68
2023/12/21 04:36:14;;;;;;;;;;;;;;;;;;1905063;28;7087;-68
2023/12/21 04:37:12;;;;;;;;;;;;;;;;;;1912350;28;7087;-69
2023/12/21 04:38:10;;;;;;;;;;;;;;;;;;1910749;28;7012;-69
2023/12/21 04:39:07;;;;;;;;;;;;;;;;;;1911333;28;7041;-68
2023/12/21 04:40:05;;;;;;;;;;;;;;;;;;1912237;28;7032;-68
2023/12/21 04:41:02;;;;;;;;;;;;;;;;;;1904303;28;7008;-68
2023/12/21 04:42:00;;;;;;;;;;;;;;;;;;1906203;28;7135;-68
2023/12/21 04:42:57;;;;;;;;;;;;;;;;;;1910169;28;7114;-68
2023/12/21 04:43:55;;;;;;;;;;;;;;;;;;1912378;28;7099;-69
2023/12/21 04:44:52;;;;;;;;;;;;;;;;;;1911398;28;8090;-68
2023/12/21 04:45:50;;;;;;;;;;;;;;;;;;1911860;28;7095;-68
2023/12/21 04:46:49;;;;;;;;;;;;;;;;;;1904450;28;7041;-68
2023/12/21 04:47:46;;;;;;;;;;;;;;;;;;1903979;28;7045;-68
2023/12/21 04:48:44;;;;;;;;;;;;;;;;;;1903904;28;7123;-68
2023/12/21 04:49:41;;;;;;;;;;;;;;;;;;1904446;28;7099;-68
2023/12/21 04:50:39;;;;;;;;;;;;;;;;;;1904885;28;8035;-68
2023/12/21 04:51:36;;;;;;;;;;;;;;;;;;1903432;28;7020;-68
2023/12/21 04:52:34;;;;;;;;;;;;;;;;;;1910635;28;7228;-69
2023/12/21 04:53:31;;;;;;;;;;;;;;;;;;1911819;28;7111;-69
2023/12/21 04:54:28;;;;;;;;;;;;;;;;;;1912010;28;7110;-69
2023/12/21 04:55:26;;;;;;;;;;;;;;;;;;1906269;28;7037;-69
2023/12/21 04:56:23;;;;;;;;;;;;;;;;;;1904675;28;7099;-68
2023/12/21 04:57:23;;;;;;;;;;;;;;;;;;1905004;28;7083;-69
2023/12/21 04:58:20;;;;;;;;;;;;;;;;;;1909362;28;7017;-68
2023/12/21 04:59:17;;;;;;;;;;;;;;;;;;1907289;28;7009;-68
2023/12/21 05:00:15;;;;;;;;;;;;;;;;;;1905351;28;7058;-68
2023/12/21 05:01:12;;;;;;;;;;;;;;;;;;1906137;28;7091;-69
2023/12/21 05:02:10;;;;;;;;;;;;;;;;;;1906553;28;7014;-68
2023/12/21 05:03:07;;;;;;;;;;;;;;;;;;1911295;28;7000;-68
2023/12/21 05:04:06;;;;;;;;;;;;;;;;;;1911932;28;7008;-69
2023/12/21 05:05:04;;;;;;;;;;;;;;;;;;1908607;28;7028;-68
2023/12/21 05:06:02;;;;;;;;;;;;;;;;;;1903036;28;7010;-69
2023/12/21 05:07:01;;;;;;;;;;;;;;;;;;1907130;28;7263;-69
2023/12/21 05:07:59;;;;;;;;;;;;;;;;;;1903293;28;7115;-69
2023/12/21 05:08:56;;;;;;;;;;;;;;;;;;1903554;28;7091;-67
2023/12/21 05:09:59;;;;;;;;;;;;;;;;;;1904405;28;7021;-68
2023/12/21 05:10:56;;;;;;;;;;;;;;;;;;1910488;28;7012;-68
2023/12/21 05:11:54;;;;;;;;;;;;;;;;;;1908642;28;7095;-69
2023/12/21 05:12:52;;;;;;;;;;;;;;;;;;1904627;28;7359;-68
2023/12/21 05:13:49;;;;;;;;;;;;;;;;;;1902309;28;7094;-68
2023/12/21 05:14:47;;;;;;;;;;;;;;;;;;1901860;28;7112;-69
2023/12/21 05:15:44;;;;;;;;;;;;;;;;;;1904390;28;7017;-68
2023/12/21 05:16:42;;;;;;;;;;;;;;;;;;1904172;28;7096;-68
2023/12/21 05:17:40;;;;;;;;;;;;;;;;;;1903934;28;7076;-68
2023/12/21 05:18:37;;;;;;;;;;;;;;;;;;1903981;28;7004;-69
2023/12/21 05:19:35;;;;;;;;;;;;;;;;;;1903650;28;7323;-69
2023/12/21 05:20:32;;;;;;;;;;;;;;;;;;1903335;28;7033;-68
2023/12/21 05:21:30;;;;;;;;;;;;;;;;;;1904651;28;7001;-67
2023/12/21 05:22:27;;;;;;;;;;;;;;;;;;1904072;28;7081;-68
2023/12/21 05:23:25;;;;;;;;;;;;;;;;;;1904593;28;7127;-68
2023/12/21 05:24:22;;;;;;;;;;;;;;;;;;1905723;28;7426;-69
2023/12/21 05:25:20;;;;;;;;;;;;;;;;;;1910642;28;7017;-68
2023/12/21 05:26:17;;;;;;;;;;;;;;;;;;1910153;28;7056;-68
2023/12/21 05:27:14;;;;;;;;;;;;;;;;;;1911327;28;8057;-68
2023/12/21 05:28:13;;;;;;;;;;;;;;;;;;1912193;28;7091;-69
2023/12/21 05:29:11;;;;;;;;;;;;;;;;;;1911162;28;7116;-67
2023/12/21 05:30:08;;;;;;;;;;;;;;;;;;1912194;28;7082;-68
2023/12/21 05:31:06;;;;;;;;;;;;;;;;;;1904720;28;7059;-68
2023/12/21 05:32:04;;;;;;;;;;;;;;;;;;1903096;28;7016;-68
2023/12/21 05:33:01;;;;;;;;;;;;;;;;;;1905051;28;7119;-68
2023/12/21 05:33:59;;;;;;;;;;;;;;;;;;1904312;28;7011;-69
2023/12/21 05:34:57;;;;;;;;;;;;;;;;;;1907169;28;7114;-67
2023/12/21 05:35:54;;;;;;;;;;;;;;;;;;1911603;28;7052;-68
2023/12/21 05:36:51;;;;;;;;;;;;;;;;;;1911537;28;7013;-68
2023/12/21 05:37:49;;;;;;;;;;;;;;;;;;1911703;28;7127;-70
2023/12/21 05:38:46;;;;;;;;;;;;;;;;;;1912254;28;7090;-68
2023/12/21 05:39:47;;;;;;;;;;;;;;;;;;1906832;28;7107;-68
2023/12/21 05:40:45;;;;;;;;;;;;;;;;;;1910861;28;7005;-69
2023/12/21 05:41:43;;;;;;;;;;;;;;;;;;1904463;28;7088;-68
2023/12/21 05:42:40;;;;;;;;;;;;;;;;;;1908533;28;9048;-68
2023/12/21 05:43:38;;;;;;;;;;;;;;;;;;1905909;28;8021;-69
2023/12/21 05:44:35;;;;;;;;;;;;;;;;;;1903849;28;7009;-68
2023/12/21 05:45:33;;;;;;;;;;;;;;;;;;1904132;28;7085;-69
2023/12/21 05:46:30;;;;;;;;;;;;;;;;;;1909813;28;7195;-69
2023/12/21 05:47:28;;;;;;;;;;;;;;;;;;1911212;28;7124;-69
2023/12/21 05:48:25;;;;;;;;;;;;;;;;;;1904064;28;7104;-68
2023/12/21 05:49:23;;;;;;;;;;;;;;;;;;1902891;28;8153;-69
2023/12/21 05:50:20;;;;;;;;;;;;;;;;;;1904719;28;7008;-67
2023/12/21 05:51:18;;;;;;;;;;;;;;;;;;1904054;28;7099;-68
2023/12/21 05:52:15;;;;;;;;;;;;;;;;;;1904224;28;8085;-68
2023/12/21 05:53:13;;;;;;;;;;;;;;;;;;1904669;28;7037;-68
2023/12/21 05:54:10;;;;;;;;;;;;;;;;;;1903594;28;7016;-67
2023/12/21 05:55:14;;;;;;;;;;;;;;;;;;1902221;28;7119;-68
2023/12/21 05:56:11;;;;;;;;;;;;;;;;;;1905118;28;7141;-68
2023/12/21 05:57:10;;;;;;;;;;;;;;;;;;1903135;28;7112;-68
2023/12/21 05:58:08;;;;;;;;;;;;;;;;;;1904065;28;7009;-69
2023/12/21 05:59:05;;;;;;;;;;;;;;;;;;1904082;28;8006;-69
2023/12/21 06:00:04;;;;;;;;;;;;;;;;;;1904323;28;7131;-68
2023/12/21 06:01:01;;;;;;;;;;;;;;;;;;1904516;28;7009;-68
2023/12/21 06:01:59;;;;;;;;;;;;;;;;;;1904674;28;7043;-69
2023/12/21 06:02:56;;;;;;;;;;;;;;;;;;1903977;28;7045;-68
2023/12/21 06:03:54;;;;;;;;;;;;;;;;;;1911652;28;7099;-69
2023/12/21 06:04:51;;;;;;;;;;;;;;;;;;1903104;28;7045;-68
2023/12/21 06:05:49;;;;;;;;;;;;;;;;;;1904381;28;7038;-69
2023/12/21 06:06:47;;;;;;;;;;;;;;;;;;1904510;28;7108;-68
2023/12/21 06:07:45;;;;;;;;;;;;;;;;;;1904661;28;7113;-68
2023/12/21 06:08:42;;;;;;;;;;;;;;;;;;1903051;28;7019;-68
2023/12/21 06:09:41;;;;;;;;;;;;;;;;;;1904258;28;7103;-68
2023/12/21 06:10:38;;;;;;;;;;;;;;;;;;1903923;28;7114;-69
2023/12/21 06:11:36;;;;;;;;;;;;;;;;;;1903662;28;7053;-68
2023/12/21 06:12:33;;;;;;;;;;;;;;;;;;1903841;28;7128;-68
2023/12/21 06:13:31;;;;;;;;;;;;;;;;;;1904100;28;7016;-70
2023/12/21 06:14:28;;;;;;;;;;;;;;;;;;1903967;28;8026;-69
2023/12/21 06:15:25;;;;;;;;;;;;;;;;;;1904213;28;7009;-69
2023/12/21 06:16:23;;;;;;;;;;;;;;;;;;1903063;28;7096;-69
2023/12/21 06:17:20;;;;;;;;;;;;;;;;;;1904104;28;8108;-68
2023/12/21 06:18:18;;;;;;;;;;;;;;;;;;1904217;28;7044;-68
2023/12/21 06:19:15;;;;;;;;;;;;;;;;;;1902076;28;7133;-69
2023/12/21 06:20:13;;;;;;;;;;;;;;;;;;1903018;28;8118;-68
2023/12/21 06:21:11;;;;;;;;;;;;;;;;;;1906781;28;7020;-68
2023/12/21 06:22:08;;;;;;;;;;;;;;;;;;1906853;28;7008;-68
2023/12/21 06:23:06;;;;;;;;;;;;;;;;;;1908900;28;7416;-68
2023/12/21 06:24:04;;;;;;;;;;;;;;;;;;1903528;28;7009;-68
2023/12/21 06:25:01;;;;;;;;;;;;;;;;;;1904522;28;7311;-69
2023/12/21 06:25:59;;;;;;;;;;;;;;;;;;1904018;28;7318;-69
2023/12/21 06:26:56;;;;;;;;;;;;;;;;;;1903805;28;8070;-69
2023/12/21 06:27:53;;;;;;;;;;;;;;;;;;1903337;28;8996;-68
2023/12/21 06:28:51;;;;;;;;;;;;;;;;;;1906617;28;7045;-69
2023/12/21 06:29:48;;;;;;;;;;;;;;;;;;1904140;28;7053;-68
2023/12/21 06:30:46;;;;;;;;;;;;;;;;;;1904469;28;7128;-69
2023/12/21 06:31:44;;;;;;;;;;;;;;;;;;1911527;28;7008;-68
2023/12/21 06:32:41;;;;;;;;;;;;;;;;;;1910524;28;7044;-69
2023/12/21 06:33:39;;;;;;;;;;;;;;;;;;1903818;28;7046;-69
2023/12/21 06:34:36;;;;;;;;;;;;;;;;;;1911087;28;8078;-68
2023/12/21 06:35:36;;;;;;;;;;;;;;;;;;1911873;28;7099;-69
2023/12/21 06:36:33;;;;;;;;;;;;;;;;;;1907134;28;7099;-68
2023/12/21 06:37:31;;;;;;;;;;;;;;;;;;1902647;28;7116;-69
2023/12/21 06:38:28;;;;;;;;;;;;;;;;;;1913089;28;7826;-68
2023/12/21 06:39:26;;;;;;;;;;;;;;;;;;1915515;28;7192;-67
2023/12/21 06:40:23;;;;;;;;;;;;;;;;;;1904575;28;7091;-67
2023/12/21 06:41:21;;;;;;;;;;;;;;;;;;1903728;28;7084;-69